createdAt,value
2023-10-26T00:00:59.672Z,1.1
2023-10-26T00:01:59.678Z,1.1
2023-10-26T00:02:59.789Z,1.1
2023-10-26T00:03:59.712Z,1.1
2023-10-26T00:04:59.720Z,1.1
2023-10-26T00:05:59.714Z,1.1
2023-10-26T00:06:59.680Z,1.1
2023-10-26T00:07:59.690Z,1.1
2023-10-26T00:08:59.709Z,1.1
2023-10-26T00:09:59.709Z,1.1
2023-10-26T00:10:59.685Z,1.1
2023-10-26T00:11:59.695Z,1.1
2023-10-26T00:12:59.679Z,1.1
2023-10-26T00:13:59.674Z,1.1
2023-10-26T00:14:59.736Z,1.1
2023-10-26T00:15:59.684Z,1.1
2023-10-26T00:16:59.669Z,1.1
2023-10-26T00:17:59.735Z,1.1
2023-10-26T00:18:59.732Z,1.1
2023-10-26T00:19:59.684Z,1.1
2023-10-26T00:20:59.705Z,1.1
2023-10-26T00:21:59.692Z,1.1
2023-10-26T00:22:59.678Z,1.1
2023-10-26T00:23:59.719Z,1.1
2023-10-26T00:24:59.698Z,1.1
2023-10-26T00:25:59.676Z,1.1
2023-10-26T00:26:59.701Z,1.1
2023-10-26T00:27:59.717Z,1.1
2023-10-26T00:28:59.684Z,1.1
2023-10-26T00:29:59.717Z,1.1
2023-10-26T00:30:59.676Z,1.1
2023-10-26T00:31:59.678Z,1.1
2023-10-26T00:32:59.766Z,1.1
2023-10-26T00:33:59.717Z,1.1
2023-10-26T00:34:59.666Z,1.1
2023-10-26T00:35:59.674Z,1.1
2023-10-26T00:36:59.665Z,1.1
2023-10-26T00:37:59.668Z,1.1
2023-10-26T00:38:59.714Z,1.1
2023-10-26T00:39:59.664Z,1.1
2023-10-26T00:40:59.677Z,1.1
2023-10-26T00:41:59.696Z,1.1
2023-10-26T00:42:59.669Z,1.1
2023-10-26T00:43:59.673Z,1.1
2023-10-26T00:44:59.697Z,1.1
2023-10-26T00:45:59.667Z,1.1
2023-10-26T00:46:59.667Z,1.1
2023-10-26T00:47:59.868Z,1.1
2023-10-26T00:48:59.762Z,1.1
2023-10-26T00:49:59.683Z,1.1
2023-10-26T00:50:59.699Z,1.1
2023-10-26T00:51:59.662Z,1.1
2023-10-26T00:52:59.655Z,1.1
2023-10-26T00:53:59.731Z,1.1
2023-10-26T00:54:59.669Z,1.1
2023-10-26T00:55:59.658Z,1.1
2023-10-26T00:56:59.675Z,1.1
2023-10-26T00:57:59.665Z,1.1
2023-10-26T00:58:59.664Z,1.1
2023-10-26T00:59:59.684Z,1.1
2023-10-26T01:00:59.658Z,1.1
2023-10-26T01:01:59.910Z,1.1
2023-10-26T01:02:59.761Z,1.1
2023-10-26T01:03:59.661Z,1.1
2023-10-26T01:04:59.665Z,1.1
2023-10-26T01:05:59.748Z,1.1
2023-10-26T01:06:59.662Z,1.1
2023-10-26T01:07:59.663Z,1.1
2023-10-26T01:08:59.721Z,1.1
2023-10-26T01:09:59.671Z,1.1
2023-10-26T01:10:59.672Z,1.1
2023-10-26T01:11:59.765Z,1.1
2023-10-26T01:12:59.674Z,1.1
2023-10-26T01:13:59.665Z,1.1
2023-10-26T01:14:59.720Z,1.1
2023-10-26T01:15:59.687Z,1.1
2023-10-26T01:16:59.687Z,1.1
2023-10-26T01:17:59.734Z,1.1
2023-10-26T01:18:59.882Z,1.1
2023-10-26T01:19:59.671Z,1.1
2023-10-26T01:20:59.675Z,1.1
2023-10-26T01:21:59.680Z,1.1
2023-10-26T01:22:59.665Z,1.1
2023-10-26T01:23:59.751Z,1.1
2023-10-26T01:24:59.666Z,1.1
2023-10-26T01:25:59.732Z,1.1
2023-10-26T01:26:59.731Z,1.1
2023-10-26T01:27:59.684Z,1.1
2023-10-26T01:28:59.690Z,1.1
2023-10-26T01:29:59.735Z,1.1
2023-10-26T01:30:59.672Z,1.1
2023-10-26T01:31:59.675Z,1.1
2023-10-26T01:32:59.805Z,1.1
2023-10-26T01:33:59.686Z,1.1
2023-10-26T01:34:59.683Z,1.1
2023-10-26T01:35:59.697Z,1.1
2023-10-26T01:36:59.665Z,1.1
2023-10-26T01:37:59.674Z,1.1
2023-10-26T01:38:59.709Z,1.1
2023-10-26T01:39:59.685Z,1.1
2023-10-26T01:40:59.670Z,1.1
2023-10-26T01:41:59.704Z,1.1
2023-10-26T01:42:59.673Z,1.1
2023-10-26T01:43:59.669Z,1.1
2023-10-26T01:44:59.765Z,1.1
2023-10-26T01:45:59.687Z,1.1
2023-10-26T01:46:59.676Z,1.1
2023-10-26T01:47:59.786Z,1.1
2023-10-26T01:48:59.729Z,1.1
2023-10-26T01:49:59.671Z,1.1
2023-10-26T01:50:59.694Z,1.1
2023-10-26T01:51:59.684Z,1.1
2023-10-26T01:52:59.711Z,1.1
2023-10-26T01:53:59.718Z,1.1
2023-10-26T01:54:59.684Z,1.1
2023-10-26T01:55:59.668Z,1.1
2023-10-26T01:56:59.699Z,1.1
2023-10-26T01:57:59.664Z,1.1
2023-10-26T01:58:59.671Z,1.1
2023-10-26T02:00:00.869Z,1.1
2023-10-26T02:00:59.542Z,1.1
2023-10-26T02:01:59.673Z,1.1
2023-10-26T02:02:59.722Z,1.1
2023-10-26T02:03:59.671Z,1.1
2023-10-26T02:04:59.775Z,1.1
2023-10-26T02:05:59.911Z,1.1
2023-10-26T02:06:59.678Z,1.1
2023-10-26T02:07:59.676Z,1.1
2023-10-26T02:08:59.701Z,1.1
2023-10-26T02:09:59.689Z,1.1
2023-10-26T02:10:59.670Z,1.1
2023-10-26T02:11:59.707Z,1.1
2023-10-26T02:12:59.675Z,1.1
2023-10-26T02:13:59.678Z,1.1
2023-10-26T02:14:59.700Z,1.1
2023-10-26T02:15:59.674Z,1.1
2023-10-26T02:16:59.674Z,1.1
2023-10-26T02:17:59.726Z,1.1
2023-10-26T02:18:59.768Z,1.1
2023-10-26T02:19:59.678Z,1.1
2023-10-26T02:20:59.687Z,1.1
2023-10-26T02:21:59.670Z,1.1
2023-10-26T02:22:59.672Z,1.1
2023-10-26T02:23:59.728Z,1.1
2023-10-26T02:24:59.685Z,1.1
2023-10-26T02:25:59.700Z,1.1
2023-10-26T02:26:59.697Z,1.1
2023-10-26T02:27:59.676Z,1.1
2023-10-26T02:28:59.668Z,1.1
2023-10-26T02:29:59.706Z,1.1
2023-10-26T02:30:59.667Z,1.1
2023-10-26T02:31:59.667Z,1.1
2023-10-26T02:32:59.838Z,1.1
2023-10-26T02:33:59.675Z,1.1
2023-10-26T02:34:59.697Z,1.1
2023-10-26T02:35:59.700Z,1.1
2023-10-26T02:36:59.668Z,1.1
2023-10-26T02:37:59.675Z,1.1
2023-10-26T02:38:59.690Z,1.1
2023-10-26T02:39:59.686Z,1.1
2023-10-26T02:40:59.671Z,1.1
2023-10-26T02:41:59.689Z,1.1
2023-10-26T02:42:59.677Z,1.1
2023-10-26T02:43:59.673Z,1.1
2023-10-26T02:44:59.702Z,1.1
2023-10-26T02:45:59.665Z,1.1
2023-10-26T02:46:59.666Z,1.1
2023-10-26T02:47:59.753Z,1.1
2023-10-26T02:48:59.676Z,1.1
2023-10-26T02:49:59.700Z,1.1
2023-10-26T02:51:00.420Z,1.1
2023-10-26T02:51:59.670Z,1.1
2023-10-26T02:52:59.669Z,1.1
2023-10-26T02:53:59.686Z,1.1
2023-10-26T02:54:59.668Z,1.1
2023-10-26T02:55:59.671Z,1.1
2023-10-26T02:56:59.678Z,1.1
2023-10-26T02:57:59.664Z,1.1
2023-10-26T02:58:59.665Z,1.1
2023-10-26T02:59:59.778Z,1.1
2023-10-26T03:00:59.662Z,1.1
2023-10-26T03:01:59.678Z,1.1
2023-10-26T03:02:59.847Z,1.1
2023-10-26T03:03:59.716Z,1.1
2023-10-26T03:04:59.669Z,1.1
2023-10-26T03:05:59.726Z,1.1
2023-10-26T03:06:59.673Z,1.1
2023-10-26T03:07:59.678Z,1.1
2023-10-26T03:08:59.697Z,1.1
2023-10-26T03:09:59.678Z,1.1
2023-10-26T03:10:59.667Z,1.1
2023-10-26T03:11:59.678Z,1.1
2023-10-26T03:12:59.665Z,1.1
2023-10-26T03:13:59.667Z,1.1
2023-10-26T03:14:59.752Z,1.1
2023-10-26T03:15:59.664Z,1.1
2023-10-26T03:16:59.713Z,1.1
2023-10-26T03:17:59.763Z,1.1
2023-10-26T03:18:59.677Z,1.1
2023-10-26T03:19:59.699Z,1.1
2023-10-26T03:20:59.823Z,1.1
2023-10-26T03:21:59.668Z,1.1
2023-10-26T03:22:59.676Z,1.1
2023-10-26T03:23:59.691Z,1.1
2023-10-26T03:24:59.679Z,1.1
2023-10-26T03:25:59.706Z,1.1
2023-10-26T03:26:59.738Z,1.1
2023-10-26T03:27:59.671Z,1.1
2023-10-26T03:28:59.682Z,1.1
2023-10-26T03:29:59.720Z,1.1
2023-10-26T03:30:59.672Z,1.1
2023-10-26T03:31:59.722Z,1.1
2023-10-26T03:32:59.773Z,1.1
2023-10-26T03:33:59.694Z,1.1
2023-10-26T03:34:59.680Z,1.1
2023-10-26T03:35:59.798Z,1.1
2023-10-26T03:36:59.708Z,1.1
2023-10-26T03:37:59.682Z,1.1
2023-10-26T03:38:59.730Z,1.1
2023-10-26T03:39:59.707Z,1.1
2023-10-26T03:40:59.675Z,1.1
2023-10-26T03:41:59.706Z,1.1
2023-10-26T03:42:59.681Z,1.1
2023-10-26T03:43:59.677Z,1.1
2023-10-26T03:44:59.698Z,1.1
2023-10-26T03:45:59.681Z,1.1
2023-10-26T03:46:59.679Z,1.1
2023-10-26T03:47:59.710Z,1.1
2023-10-26T03:48:59.686Z,1.1
2023-10-26T03:49:59.708Z,1.1
2023-10-26T03:50:59.715Z,1.1
2023-10-26T03:51:59.710Z,1.1
2023-10-26T03:52:59.690Z,1.1
2023-10-26T03:53:59.698Z,1.1
2023-10-26T03:54:59.672Z,1.1
2023-10-26T03:55:59.690Z,1.1
2023-10-26T03:56:59.709Z,1.1
2023-10-26T03:57:59.677Z,1.1
2023-10-26T03:58:59.674Z,1.1
2023-10-26T03:59:59.804Z,1.1
2023-10-26T04:00:59.665Z,1.1
2023-10-26T04:01:59.785Z,1.1
2023-10-26T04:02:59.742Z,1.1
2023-10-26T04:03:59.671Z,1.1
2023-10-26T04:04:59.692Z,1.1
2023-10-26T04:05:59.677Z,1.1
2023-10-26T04:06:59.680Z,1.1
2023-10-26T04:07:59.676Z,1.1
2023-10-26T04:08:59.735Z,1.1
2023-10-26T04:09:59.674Z,1.1
2023-10-26T04:10:59.665Z,1.1
2023-10-26T04:11:59.696Z,1.1
2023-10-26T04:12:59.664Z,1.1
2023-10-26T04:13:59.679Z,1.1
2023-10-26T04:14:59.684Z,1.1
2023-10-26T04:15:59.729Z,1.1
2023-10-26T04:16:59.666Z,1.1
2023-10-26T04:17:59.730Z,1.1
2023-10-26T04:18:59.669Z,1.1
2023-10-26T04:19:59.674Z,1.1
2023-10-26T04:20:59.744Z,1.1
2023-10-26T04:21:59.663Z,1.1
2023-10-26T04:22:59.681Z,1.1
2023-10-26T04:23:59.693Z,1.1
2023-10-26T04:24:59.670Z,1.1
2023-10-26T04:25:59.696Z,1.1
2023-10-26T04:26:59.704Z,1.1
2023-10-26T04:27:59.670Z,1.1
2023-10-26T04:28:59.674Z,1.1
2023-10-26T04:29:59.730Z,1.1
2023-10-26T04:30:59.675Z,1.1
2023-10-26T04:31:59.722Z,1.1
2023-10-26T04:32:59.776Z,1.1
2023-10-26T04:33:59.676Z,1.1
2023-10-26T04:34:59.670Z,1.1
2023-10-26T04:35:59.691Z,1.1
2023-10-26T04:36:59.676Z,1.1
2023-10-26T04:37:59.680Z,1.1
2023-10-26T04:38:59.734Z,1.1
2023-10-26T04:40:00.656Z,1.1
2023-10-26T04:40:59.682Z,1.1
2023-10-26T04:41:59.714Z,1.1
2023-10-26T04:42:59.685Z,1.1
2023-10-26T04:43:59.685Z,1.1
2023-10-26T04:44:59.747Z,1.1
2023-10-26T04:45:59.738Z,1.1
2023-10-26T04:46:59.691Z,1.1
2023-10-26T04:47:59.804Z,1.1
2023-10-26T04:48:59.713Z,1.1
2023-10-26T04:49:59.717Z,1.1
2023-10-26T04:50:59.887Z,1.1
2023-10-26T04:51:59.741Z,1.1
2023-10-26T04:52:59.692Z,1.1
2023-10-26T04:53:59.711Z,1.1
2023-10-26T04:54:59.700Z,1.1
2023-10-26T04:55:59.688Z,1.1
2023-10-26T04:56:59.740Z,1.1
2023-10-26T04:57:59.687Z,1.1
2023-10-26T04:58:59.694Z,1.1
2023-10-26T04:59:59.746Z,1.1
2023-10-26T05:00:59.687Z,1.1
2023-10-26T05:01:59.774Z,1.1
2023-10-26T05:02:59.805Z,1.1
2023-10-26T05:03:59.679Z,1.1
2023-10-26T05:04:59.708Z,1.1
2023-10-26T05:06:00.002Z,1.1
2023-10-26T05:06:59.841Z,1.1
2023-10-26T05:07:59.732Z,1.1
2023-10-26T05:09:00.858Z,1.1
2023-10-26T05:09:59.684Z,1.1
2023-10-26T05:10:59.713Z,1.1
2023-10-26T05:11:59.712Z,1.1
2023-10-26T05:12:59.681Z,1.1
2023-10-26T05:13:59.670Z,1.1
2023-10-26T05:14:59.694Z,1.1
2023-10-26T05:15:59.770Z,1.1
2023-10-26T05:16:59.670Z,1.1
2023-10-26T05:17:59.773Z,1.1
2023-10-26T05:18:59.684Z,1.1
2023-10-26T05:19:59.671Z,1.1
2023-10-26T05:20:59.701Z,1.1
2023-10-26T05:22:01.996Z,1.1
2023-10-26T05:22:59.675Z,1.1
2023-10-26T05:23:59.680Z,1.1
2023-10-26T05:24:59.673Z,1.1
2023-10-26T05:25:59.689Z,1.1
2023-10-26T05:26:59.760Z,1.1
2023-10-26T05:27:59.678Z,1.1
2023-10-26T05:28:59.741Z,1.1
2023-10-26T05:29:59.710Z,1.1
2023-10-26T05:30:59.669Z,1.1
2023-10-26T05:31:59.703Z,1.1
2023-10-26T05:32:59.750Z,1.1
2023-10-26T05:33:59.680Z,1.1
2023-10-26T05:34:59.677Z,1.1
2023-10-26T05:35:59.699Z,1.1
2023-10-26T05:36:59.657Z,1.1
2023-10-26T05:37:59.666Z,1.1
2023-10-26T05:38:59.708Z,1.1
2023-10-26T05:39:59.676Z,1.2
2023-10-26T05:40:59.660Z,1.5
2023-10-26T05:41:59.689Z,1.9
2023-10-26T05:42:59.669Z,2.3
2023-10-26T05:43:59.669Z,2.7
2023-10-26T05:44:59.693Z,3.2
2023-10-26T05:45:59.677Z,3.4
2023-10-26T05:46:59.656Z,3.8
2023-10-26T05:47:59.722Z,4.4
2023-10-26T05:48:59.660Z,5
2023-10-26T05:49:59.681Z,5.5
2023-10-26T05:50:59.685Z,5.7
2023-10-26T05:51:59.659Z,6.4
2023-10-26T05:52:59.655Z,7.2
2023-10-26T05:53:59.698Z,8.2
2023-10-26T05:54:59.672Z,9.2
2023-10-26T05:55:59.652Z,10.8
2023-10-26T05:56:59.703Z,13.9
2023-10-26T05:57:59.690Z,16.4
2023-10-26T05:58:59.656Z,16.8
2023-10-26T05:59:59.715Z,17.6
2023-10-26T06:00:59.665Z,20.9
2023-10-26T06:01:59.658Z,23.8
2023-10-26T06:02:59.733Z,24.7
2023-10-26T06:03:59.823Z,23.2
2023-10-26T06:04:59.659Z,21.6
2023-10-26T06:05:59.711Z,19.2
2023-10-26T06:06:59.652Z,19.4
2023-10-26T06:07:59.662Z,21.4
2023-10-26T06:08:59.706Z,23.8
2023-10-26T06:09:59.678Z,27.8
2023-10-26T06:10:59.671Z,31.7
2023-10-26T06:11:59.696Z,36.1
2023-10-26T06:12:59.704Z,40.7
2023-10-26T06:13:59.659Z,45.9
2023-10-26T06:14:59.698Z,53.6
2023-10-26T06:15:59.681Z,61.9
2023-10-26T06:16:59.660Z,66.5
2023-10-26T06:17:59.712Z,69
2023-10-26T06:18:59.657Z,71.5
2023-10-26T06:19:59.669Z,76.8
2023-10-26T06:20:59.688Z,85.5
2023-10-26T06:21:59.657Z,95.2
2023-10-26T06:22:59.660Z,98.7
2023-10-26T06:23:59.688Z,99.9
2023-10-26T06:24:59.653Z,98.7
2023-10-26T06:25:59.672Z,99.9
2023-10-26T06:26:59.699Z,106
2023-10-26T06:27:59.679Z,116.7
2023-10-26T06:28:59.657Z,128.4
2023-10-26T06:29:59.721Z,139.6
2023-10-26T06:30:59.678Z,148.2
2023-10-26T06:31:59.733Z,151.8
2023-10-26T06:32:59.721Z,146.5
2023-10-26T06:33:59.665Z,143
2023-10-26T06:34:59.658Z,144.7
2023-10-26T06:35:59.708Z,151.8
2023-10-26T06:36:59.688Z,159.3
2023-10-26T06:37:59.722Z,163.1
2023-10-26T06:38:59.667Z,171.1
2023-10-26T06:39:59.660Z,167.1
2023-10-26T06:40:59.657Z,148.2
2023-10-26T06:41:59.694Z,138
2023-10-26T06:42:59.681Z,131.5
2023-10-26T06:43:59.664Z,151.8
2023-10-26T06:44:59.686Z,171.1
2023-10-26T06:45:59.690Z,197.5
2023-10-26T06:46:59.660Z,214.8
2023-10-26T06:47:59.738Z,222.6
2023-10-26T06:48:59.724Z,233.5
2023-10-26T06:49:59.736Z,250.9
2023-10-26T06:50:59.704Z,263.2
2023-10-26T06:51:59.665Z,269.5
2023-10-26T06:52:59.655Z,269.5
2023-10-26T06:53:59.699Z,263.2
2023-10-26T06:54:59.997Z,256.9
2023-10-26T06:55:59.853Z,236.3
2023-10-26T06:56:59.664Z,222.6
2023-10-26T06:57:59.664Z,197.5
2023-10-26T06:58:59.655Z,181.6
2023-10-26T06:59:59.707Z,163.1
2023-10-26T07:00:59.660Z,144.7
2023-10-26T07:02:09.655Z,133.1
2023-10-26T07:02:59.880Z,130
2023-10-26T07:03:59.771Z,138
2023-10-26T07:05:01.558Z,163.1
2023-10-26T07:05:59.699Z,228
2023-10-26T07:06:59.657Z,263.2
2023-10-26T07:07:59.663Z,269.5
2023-10-26T07:08:59.696Z,276.1
2023-10-26T07:09:59.660Z,276.1
2023-10-26T07:10:59.657Z,282.7
2023-10-26T07:11:59.725Z,286.1
2023-10-26T07:12:59.659Z,269.5
2023-10-26T07:13:59.656Z,256.9
2023-10-26T07:14:59.680Z,247.9
2023-10-26T07:15:59.809Z,236.3
2023-10-26T07:16:59.661Z,233.5
2023-10-26T07:17:59.727Z,239.2
2023-10-26T07:18:59.678Z,239.2
2023-10-26T07:19:59.656Z,236.3
2023-10-26T07:20:59.766Z,276.1
2023-10-26T07:21:59.660Z,311.1
2023-10-26T07:22:59.693Z,326.4
2023-10-26T07:23:59.711Z,314.9
2023-10-26T07:24:59.656Z,314.9
2023-10-26T07:25:59.686Z,326.4
2023-10-26T07:26:59.688Z,342.4
2023-10-26T07:27:59.670Z,354.9
2023-10-26T07:28:59.665Z,372.2
2023-10-26T07:29:59.680Z,404.8
2023-10-26T07:30:59.680Z,419.6
2023-10-26T07:31:59.694Z,424.6
2023-10-26T07:32:59.875Z,399.9
2023-10-26T07:33:59.653Z,381.3
2023-10-26T07:34:59.736Z,385.9
2023-10-26T07:35:59.795Z,381.3
2023-10-26T07:36:59.657Z,359.1
2023-10-26T07:38:34.520Z,346.5
2023-10-26T07:39:45.847Z,354.9
2023-10-26T07:40:27.798Z,395.2
2023-10-26T07:40:59.673Z,472.9
2023-10-26T07:42:07.163Z,532.9
2023-10-26T07:42:59.658Z,615.1
2023-10-26T07:43:59.680Z,676.9
2023-10-26T07:44:59.682Z,762.9
2023-10-26T07:45:59.690Z,800.3
2023-10-26T07:46:59.658Z,753.8
2023-10-26T07:48:01.926Z,701.6
2023-10-26T07:48:59.660Z,718.6
2023-10-26T07:49:59.658Z,718.6
2023-10-26T07:50:59.702Z,637.6
2023-10-26T07:51:59.649Z,552.4
2023-10-26T07:52:59.655Z,559
2023-10-26T07:53:59.707Z,615.1
2023-10-26T07:54:59.717Z,653
2023-10-26T07:55:59.679Z,630
2023-10-26T07:56:59.653Z,653
2023-10-26T07:57:59.667Z,615.1
2023-10-26T07:58:59.722Z,514.1
2023-10-26T07:59:59.688Z,467.2
2023-10-26T08:00:59.656Z,434.9
2023-10-26T08:01:59.868Z,363.5
2023-10-26T08:02:59.796Z,300.2
2023-10-26T08:03:59.660Z,282.7
2023-10-26T08:04:59.801Z,269.5
2023-10-26T08:05:59.659Z,282.7
2023-10-26T08:06:59.650Z,289.6
2023-10-26T08:07:59.757Z,269.5
2023-10-26T08:08:59.660Z,263.2
2023-10-26T08:09:59.667Z,269.5
2023-10-26T08:10:59.687Z,303.8
2023-10-26T08:11:59.651Z,390.5
2023-10-26T08:12:59.668Z,467.2
2023-10-26T08:13:59.748Z,472.9
2023-10-26T08:16:28.213Z,456.2
2023-10-26T08:16:28.528Z,440.1
2023-10-26T08:16:59.711Z,502
2023-10-26T08:17:59.796Z,565.7
2023-10-26T08:18:59.710Z,607.8
2023-10-26T08:20:00.608Z,676.9
2023-10-26T08:20:59.652Z,693.3
2023-10-26T08:21:59.658Z,653
2023-10-26T08:22:59.665Z,710.1
2023-10-26T08:23:59.652Z,718.6
2023-10-26T08:24:59.652Z,701.6
2023-10-26T08:25:59.696Z,753.8
2023-10-26T08:26:59.690Z,934.9
2023-10-26T08:27:59.656Z,1066.3
2023-10-26T08:29:59.696Z,1230.8
2023-10-26T08:30:59.668Z,1322.4
2023-10-26T08:31:59.841Z,1490.4
2023-10-26T08:32:59.879Z,1387.2
2023-10-26T08:33:59.662Z,1387.2
2023-10-26T08:34:59.706Z,1291.2
2023-10-26T08:35:59.659Z,1403.9
2023-10-26T08:37:59.718Z,1582.3
2023-10-26T08:38:59.658Z,1620.5
2023-10-26T08:39:59.658Z,1762
2023-10-26T08:40:59.703Z,1699.9
2023-10-26T08:41:59.663Z,1582.3
2023-10-26T08:42:59.653Z,1437.9
2023-10-26T08:43:59.707Z,1387.2
2023-10-26T08:44:59.655Z,1354.4
2023-10-26T08:45:59.713Z,1370.7
2023-10-26T08:46:59.699Z,1159.4
2023-10-26T08:47:59.724Z,1066.3
2023-10-26T08:48:59.681Z,1105.3
2023-10-26T08:50:15.603Z,901.9
2023-10-26T08:50:59.663Z,946.1
2023-10-26T08:51:59.652Z,923.7
2023-10-26T08:52:59.704Z,1004.4
2023-10-26T08:53:59.652Z,1118.6
2023-10-26T08:54:59.657Z,1437.9
2023-10-26T08:55:59.691Z,1472.7
2023-10-26T08:56:59.668Z,1563.4
2023-10-26T08:57:59.695Z,1601.3
2023-10-26T08:58:59.687Z,1620.5
2023-10-26T08:59:59.677Z,1804.7
2023-10-26T09:00:59.650Z,1870.6
2023-10-26T09:01:59.827Z,1985.8
2023-10-26T09:02:59.880Z,2009.8
2023-10-26T09:03:59.731Z,2133.6
2023-10-26T09:04:59.742Z,2058.4
2023-10-26T09:05:59.664Z,1870.6
2023-10-26T09:06:59.668Z,1826.4
2023-10-26T09:07:59.729Z,1563.4
2023-10-26T09:08:59.662Z,1659.7
2023-10-26T09:09:59.686Z,1915.9
2023-10-26T09:10:59.718Z,1783.3
2023-10-26T09:11:59.655Z,1699.9
2023-10-26T09:12:59.655Z,1582.3
2023-10-26T09:13:59.708Z,1679.7
2023-10-26T09:14:59.652Z,1741
2023-10-26T09:15:59.919Z,1870.6
2023-10-26T09:16:59.760Z,1826.4
2023-10-26T09:17:59.695Z,1938.9
2023-10-26T09:18:59.655Z,1848.4
2023-10-26T09:19:59.736Z,1826.4
2023-10-26T09:20:59.651Z,1915.9
2023-10-26T09:21:59.655Z,1659.7
2023-10-26T09:22:59.703Z,1338.3
2023-10-26T09:23:59.678Z,980.7
2023-10-26T09:24:59.654Z,957.5
2023-10-26T09:25:59.717Z,1041.1
2023-10-26T09:26:59.674Z,1079.1
2023-10-26T09:27:59.647Z,1145.6
2023-10-26T09:28:59.739Z,1216.2
2023-10-26T09:29:59.666Z,1132
2023-10-26T09:30:59.652Z,1403.9
2023-10-26T09:31:59.739Z,1762
2023-10-26T09:32:59.962Z,1420.8
2023-10-26T09:33:59.654Z,1403.9
2023-10-26T09:34:59.697Z,1544.8
2023-10-26T09:35:59.653Z,1387.2
2023-10-26T09:36:59.665Z,1490.4
2023-10-26T09:37:59.746Z,1620.5
2023-10-26T09:38:59.659Z,1490.4
2023-10-26T09:40:14.998Z,1145.6
2023-10-26T09:40:59.692Z,1216.2
2023-10-26T09:41:59.650Z,1508.3
2023-10-26T09:42:59.909Z,1870.6
2023-10-26T09:44:00.548Z,2083.2
2023-10-26T09:44:59.658Z,2009.8
2023-10-26T09:45:59.688Z,2058.4
2023-10-26T09:47:00.140Z,2319.9
2023-10-26T09:47:59.749Z,2319.9
2023-10-26T09:48:59.693Z,2211.5
2023-10-26T09:49:59.689Z,1915.9
2023-10-26T09:50:59.661Z,1915.9
2023-10-26T09:51:59.670Z,1915.9
2023-10-26T09:52:59.715Z,1582.3
2023-10-26T09:53:59.710Z,1230.8
2023-10-26T09:54:59.685Z,1028.7
2023-10-26T09:55:59.649Z,1216.2
2023-10-26T09:56:59.943Z,1159.4
2023-10-26T09:57:59.697Z,1004.4
2023-10-26T09:58:59.651Z,912.8
2023-10-26T10:00:00.742Z,901.9
2023-10-26T10:00:59.694Z,753.8
2023-10-26T10:01:59.693Z,781.4
2023-10-26T10:02:59.690Z,957.5
2023-10-26T10:03:59.756Z,1699.9
2023-10-26T10:04:59.653Z,1306.7
2023-10-26T10:05:59.650Z,1338.3
2023-10-26T10:06:59.751Z,1679.7
2023-10-26T10:07:59.647Z,2159.2
2023-10-26T10:08:59.646Z,1544.8
2023-10-26T10:09:59.703Z,1118.6
2023-10-26T10:11:00.444Z,1016.5
2023-10-26T10:11:59.673Z,1066.3
2023-10-26T10:12:59.693Z,1245.7
2023-10-26T10:13:59.652Z,1403.9
2023-10-26T10:15:15.527Z,1699.9
2023-10-26T10:15:59.692Z,1508.3
2023-10-26T10:16:59.739Z,1544.8
2023-10-26T10:17:59.729Z,1354.4
2023-10-26T10:18:59.668Z,1338.3
2023-10-26T10:19:59.667Z,1544.8
2023-10-26T10:20:59.645Z,1679.7
2023-10-26T10:21:59.710Z,2492.4
2023-10-26T10:22:59.653Z,2911.7
2023-10-26T10:23:59.647Z,2742.6
2023-10-26T10:25:00.131Z,2877.1
2023-10-26T10:26:08.366Z,2677.9
2023-10-26T10:26:59.674Z,2319.9
2023-10-26T10:27:59.675Z,2108.2
2023-10-26T10:28:59.654Z,1741
2023-10-26T10:29:59.708Z,1455.2
2023-10-26T10:30:59.702Z,1145.6
2023-10-26T10:31:59.666Z,1132
2023-10-26T10:32:59.690Z,1187.5
2023-10-26T10:33:59.717Z,1370.7
2023-10-26T10:34:59.673Z,1720.4
2023-10-26T10:35:59.654Z,2159.2
2023-10-26T10:36:59.684Z,2552.8
2023-10-26T10:37:59.655Z,2742.6
2023-10-26T10:38:59.646Z,2877.1
2023-10-26T10:39:59.745Z,3091.1
2023-10-26T10:40:59.654Z,3204.1
2023-10-26T10:41:59.652Z,3054.3
2023-10-26T10:42:59.718Z,3242.6
2023-10-26T10:43:59.657Z,3611.1
2023-10-26T10:44:59.665Z,3742.9
2023-10-26T10:45:59.676Z,3654.5
2023-10-26T10:46:59.639Z,3525.6
2023-10-26T10:47:59.672Z,3401.4
2023-10-26T10:48:59.685Z,3128.2
2023-10-26T10:49:59.671Z,2946.7
2023-10-26T10:50:59.622Z,3091.1
2023-10-26T10:51:59.665Z,3165.8
2023-10-26T10:52:59.635Z,3321.1
2023-10-26T10:54:03.088Z,3281.6
2023-10-26T10:55:05.200Z,3281.6
2023-10-26T10:55:59.620Z,3483.7
2023-10-26T10:56:59.611Z,3879.6
2023-10-26T10:57:59.694Z,3568
2023-10-26T10:58:59.611Z,3361
2023-10-26T10:59:59.671Z,3442.3
2023-10-26T11:00:59.640Z,3611.1
2023-10-26T11:01:59.621Z,3401.4
2023-10-26T11:02:59.720Z,3525.6
2023-10-26T11:03:59.716Z,3568
2023-10-26T11:05:09.185Z,3442.3
2023-10-26T11:05:59.898Z,3321.1
2023-10-26T11:06:59.651Z,2911.7
2023-10-26T11:07:59.627Z,2376
2023-10-26T11:08:59.635Z,2404.6
2023-10-26T11:09:59.801Z,2211.5
2023-10-26T11:10:59.638Z,1783.3
2023-10-26T11:11:59.677Z,1699.9
2023-10-26T11:12:59.672Z,1563.4
2023-10-26T11:13:59.666Z,1582.3
2023-10-26T11:14:59.656Z,2265.1
2023-10-26T11:15:59.754Z,2462.8
2023-10-26T11:16:59.648Z,2710.1
2023-10-26T11:18:00.224Z,3788
2023-10-26T11:18:59.709Z,3833.5
2023-10-26T11:19:59.669Z,3165.8
2023-10-26T11:20:59.659Z,3128.2
2023-10-26T11:21:59.730Z,3321.1
2023-10-26T11:22:59.665Z,2376
2023-10-26T11:23:59.661Z,1826.4
2023-10-26T11:24:59.680Z,1741
2023-10-26T11:25:59.666Z,1870.6
2023-10-26T11:26:59.672Z,2211.5
2023-10-26T11:27:59.736Z,2108.2
2023-10-26T11:28:59.654Z,2347.8
2023-10-26T11:29:59.760Z,2583.5
2023-10-26T11:30:59.809Z,2742.6
2023-10-26T11:31:59.656Z,2982.2
2023-10-26T11:32:59.741Z,2809
2023-10-26T11:33:59.679Z,3018
2023-10-26T11:34:59.663Z,3242.6
2023-10-26T11:35:59.667Z,3204.1
2023-10-26T11:36:59.712Z,3242.6
2023-10-26T11:37:59.662Z,3165.8
2023-10-26T11:39:00.466Z,3321.1
2023-10-26T11:39:59.722Z,3568
2023-10-26T11:40:59.655Z,3568
2023-10-26T11:41:59.657Z,3568
2023-10-26T11:42:59.690Z,3442.3
2023-10-26T11:43:59.661Z,3321.1
2023-10-26T11:44:59.660Z,3483.7
2023-10-26T11:45:59.748Z,3321.1
2023-10-26T11:46:59.675Z,3401.4
2023-10-26T11:47:59.710Z,3321.1
2023-10-26T11:48:59.692Z,3321.1
2023-10-26T11:49:59.726Z,3321.1
2023-10-26T11:50:59.658Z,3091.1
2023-10-26T11:52:01.117Z,2946.7
2023-10-26T11:52:59.681Z,3018
2023-10-26T11:53:59.662Z,3018
2023-10-26T11:54:59.714Z,3018
2023-10-26T11:55:59.663Z,3165.8
2023-10-26T11:56:59.650Z,3242.6
2023-10-26T11:57:59.714Z,3165.8
2023-10-26T11:58:59.647Z,2809
2023-10-26T11:59:59.682Z,2877.1
2023-10-26T12:00:59.667Z,2809
2023-10-26T12:01:59.675Z,2877.1
2023-10-26T12:02:59.756Z,3018
2023-10-26T12:03:59.715Z,2911.7
2023-10-26T12:04:59.655Z,2946.7
2023-10-26T12:05:59.656Z,2583.5
2023-10-26T12:06:59.685Z,2492.4
2023-10-26T12:07:59.656Z,2433.5
2023-10-26T12:08:59.662Z,2775.6
2023-10-26T12:09:59.703Z,2946.7
2023-10-26T12:10:59.665Z,2911.7
2023-10-26T12:11:59.653Z,2809
2023-10-26T12:12:59.665Z,2809
2023-10-26T12:13:59.663Z,2809
2023-10-26T12:14:59.712Z,2842.8
2023-10-26T12:15:59.710Z,2877.1
2023-10-26T12:16:59.655Z,3242.6
2023-10-26T12:17:59.667Z,3242.6
2023-10-26T12:18:59.735Z,3204.1
2023-10-26T12:19:59.661Z,3165.8
2023-10-26T12:20:59.653Z,3321.1
2023-10-26T12:21:59.697Z,3321.1
2023-10-26T12:22:59.661Z,3281.6
2023-10-26T12:23:59.656Z,3281.6
2023-10-26T12:24:59.684Z,3401.4
2023-10-26T12:25:59.656Z,3321.1
2023-10-26T12:26:59.655Z,3281.6
2023-10-26T12:28:20.645Z,3018
2023-10-26T12:28:59.681Z,2982.2
2023-10-26T12:29:59.679Z,3242.6
2023-10-26T12:30:59.747Z,3165.8
2023-10-26T12:31:59.658Z,3611.1
2023-10-26T12:32:59.735Z,3204.1
2023-10-26T12:33:59.687Z,3401.4
2023-10-26T12:34:59.668Z,3611.1
2023-10-26T12:35:59.653Z,3442.3
2023-10-26T12:36:59.723Z,3525.6
2023-10-26T12:37:59.659Z,3879.6
2023-10-26T12:38:59.654Z,3879.6
2023-10-26T12:39:59.823Z,3788
2023-10-26T12:40:59.678Z,3654.5
2023-10-26T12:41:59.699Z,3698.5
2023-10-26T12:42:59.677Z,3788
2023-10-26T12:43:59.678Z,3442.3
2023-10-26T12:44:59.662Z,3401.4
2023-10-26T12:45:59.762Z,3611.1
2023-10-26T12:46:59.689Z,3483.7
2023-10-26T12:47:59.719Z,3281.6
2023-10-26T12:48:59.683Z,3442.3
2023-10-26T12:50:00.453Z,3483.7
2023-10-26T12:50:59.716Z,3788
2023-10-26T12:51:59.785Z,3926.3
2023-10-26T12:52:59.706Z,3926.3
2023-10-26T12:54:02.438Z,4320.5
2023-10-26T12:54:59.748Z,3973.5
2023-10-26T12:55:59.684Z,4069.8
2023-10-26T12:56:59.785Z,4168.3
2023-10-26T12:57:59.745Z,4118.8
2023-10-26T12:58:59.711Z,4532.1
2023-10-26T12:59:59.828Z,4320.5
2023-10-26T13:00:59.816Z,4069.8
2023-10-26T13:01:59.658Z,3926.3
2023-10-26T13:02:59.692Z,3654.5
2023-10-26T13:03:59.817Z,3611.1
2023-10-26T13:04:59.886Z,3401.4
2023-10-26T13:05:59.677Z,2982.2
2023-10-26T13:06:59.987Z,2775.6
2023-10-26T13:07:59.820Z,2710.1
2023-10-26T13:08:59.734Z,2742.6
2023-10-26T13:09:59.937Z,2742.6
2023-10-26T13:10:59.792Z,2775.6
2023-10-26T13:11:59.717Z,2775.6
2023-10-26T13:12:59.807Z,2911.7